sensor_id;sensor_type;location;lat;lon;timestamp;temperature;humidity
2721;DHT22;1368;49.484;11.112;2022-10-17T00:00:40;15.70;99.90
2721;DHT22;1368;49.484;11.112;2022-10-17T00:03:05;15.80;99.90
2721;DHT22;1368;49.484;11.112;2022-10-17T00:05:31;16.20;99.90
2721;DHT22;1368;49.484;11.112;2022-10-17T00:07:56;16.20;99.90
2721;DHT22;1368;49.484;11.112;2022-10-17T00:10:22;16.10;99.90
2721;DHT22;1368;49.484;11.112;2022-10-17T00:12:49;15.70;99.90
2721;DHT22;1368;49.484;11.112;2022-10-17T00:15:17;15.60;99.90
2721;DHT22;1368;49.484;11.112;2022-10-17T00:17:43;15.70;99.90
2721;DHT22;1368;49.484;11.112;2022-10-17T00:20:09;15.80;99.90
2721;DHT22;1368;49.484;11.112;2022-10-17T00:22:35;15.70;99.90
2721;DHT22;1368;49.484;11.112;2022-10-17T00:25:00;15.60;99.90
2721;DHT22;1368;49.484;11.112;2022-10-17T00:27:26;15.90;99.90
2721;DHT22;1368;49.484;11.112;2022-10-17T00:29:51;15.30;99.90
2721;DHT22;1368;49.484;11.112;2022-10-17T00:32:18;15.80;99.90
2721;DHT22;1368;49.484;11.112;2022-10-17T00:34:44;15.90;99.90
2721;DHT22;1368;49.484;11.112;2022-10-17T00:37:10;15.70;99.90
2721;DHT22;1368;49.484;11.112;2022-10-17T00:39:36;15.60;99.90
2721;DHT22;1368;49.484;11.112;2022-10-17T00:42:01;15.70;99.90
2721;DHT22;1368;49.484;11.112;2022-10-17T00:47:00;15.70;99.90
2721;DHT22;1368;49.484;11.112;2022-10-17T00:49:30;15.70;99.90
2721;DHT22;1368;49.484;11.112;2022-10-17T00:52:00;15.90;99.90
2721;DHT22;1368;49.484;11.112;2022-10-17T00:54:30;15.80;99.90
2721;DHT22;1368;49.484;11.112;2022-10-17T00:56:56;15.90;99.90
2721;DHT22;1368;49.484;11.112;2022-10-17T00:59:24;15.70;99.90
2721;DHT22;1368;49.484;11.112;2022-10-17T01:01:58;16.10;99.90
2721;DHT22;1368;49.484;11.112;2022-10-17T01:04:25;16.00;99.90
2721;DHT22;1368;49.484;11.112;2022-10-17T01:06:50;15.50;99.90
2721;DHT22;1368;49.484;11.112;2022-10-17T01:09:16;15.80;99.90
2721;DHT22;1368;49.484;11.112;2022-10-17T01:14:31;15.50;99.90
2721;DHT22;1368;49.484;11.112;2022-10-17T01:17:09;15.30;99.90
2721;DHT22;1368;49.484;11.112;2022-10-17T01:22:32;15.20;99.90
2721;DHT22;1368;49.484;11.112;2022-10-17T01:26:11;15.10;99.90
2721;DHT22;1368;49.484;11.112;2022-10-17T01:28:14;15.10;99.90
2721;DHT22;1368;49.484;11.112;2022-10-17T01:36:21;15.40;99.90
2721;DHT22;1368;49.484;11.112;2022-10-17T01:39:20;15.60;99.90
2721;DHT22;1368;49.484;11.112;2022-10-17T01:41:56;15.50;99.90
2721;DHT22;1368;49.484;11.112;2022-10-17T01:47:09;15.60;99.90
2721;DHT22;1368;49.484;11.112;2022-10-17T01:49:38;15.60;99.90
2721;DHT22;1368;49.484;11.112;2022-10-17T01:52:16;15.90;99.90
2721;DHT22;1368;49.484;11.112;2022-10-17T01:54:51;15.60;99.90
2721;DHT22;1368;49.484;11.112;2022-10-17T01:57:26;15.60;99.90
2721;DHT22;1368;49.484;11.112;2022-10-17T01:59:54;15.60;99.90
2721;DHT22;1368;49.484;11.112;2022-10-17T02:02:21;15.60;99.90
2721;DHT22;1368;49.484;11.112;2022-10-17T02:04:49;15.60;99.90
2721;DHT22;1368;49.484;11.112;2022-10-17T02:07:15;15.80;99.90
2721;DHT22;1368;49.484;11.112;2022-10-17T02:09:41;15.80;99.90
2721;DHT22;1368;49.484;11.112;2022-10-17T02:15:40;15.30;99.90
2721;DHT22;1368;49.484;11.112;2022-10-17T02:21:17;15.20;99.90
2721;DHT22;1368;49.484;11.112;2022-10-17T02:29:08;15.50;99.90
2721;DHT22;1368;49.484;11.112;2022-10-17T02:31:38;15.10;99.90
2721;DHT22;1368;49.484;11.112;2022-10-17T02:34:08;15.10;99.90
2721;DHT22;1368;49.484;11.112;2022-10-17T02:36:46;15.10;99.90
2721;DHT22;1368;49.484;11.112;2022-10-17T02:39:12;15.00;99.90
2721;DHT22;1368;49.484;11.112;2022-10-17T02:41:40;14.80;99.90
2721;DHT22;1368;49.484;11.112;2022-10-17T02:44:07;14.60;99.90
2721;DHT22;1368;49.484;11.112;2022-10-17T02:46:34;14.60;99.90
2721;DHT22;1368;49.484;11.112;2022-10-17T02:49:20;14.80;99.90
2721;DHT22;1368;49.484;11.112;2022-10-17T02:52:11;14.60;99.90
2721;DHT22;1368;49.484;11.112;2022-10-17T02:54:46;15.00;99.90
2721;DHT22;1368;49.484;11.112;2022-10-17T02:57:15;14.70;99.90
2721;DHT22;1368;49.484;11.112;2022-10-17T02:59:44;14.80;99.90
2721;DHT22;1368;49.484;11.112;2022-10-17T03:02:10;15.00;99.90
2721;DHT22;1368;49.484;11.112;2022-10-17T03:04:36;14.80;99.90
2721;DHT22;1368;49.484;11.112;2022-10-17T03:07:02;14.80;99.90
2721;DHT22;1368;49.484;11.112;2022-10-17T03:09:28;14.80;99.90
2721;DHT22;1368;49.484;11.112;2022-10-17T03:11:53;14.60;99.90
2721;DHT22;1368;49.484;11.112;2022-10-17T03:14:19;14.50;99.90
2721;DHT22;1368;49.484;11.112;2022-10-17T03:16:45;14.70;99.90
2721;DHT22;1368;49.484;11.112;2022-10-17T03:19:10;14.20;99.90
2721;DHT22;1368;49.484;11.112;2022-10-17T03:21:36;14.20;99.90
2721;DHT22;1368;49.484;11.112;2022-10-17T03:24:02;14.10;99.90
2721;DHT22;1368;49.484;11.112;2022-10-17T03:26:28;14.00;99.90
2721;DHT22;1368;49.484;11.112;2022-10-17T03:28:54;14.00;99.90
2721;DHT22;1368;49.484;11.112;2022-10-17T03:31:21;14.20;99.90
2721;DHT22;1368;49.484;11.112;2022-10-17T03:33:47;14.40;99.90
2721;DHT22;1368;49.484;11.112;2022-10-17T03:36:14;14.30;99.90
2721;DHT22;1368;49.484;11.112;2022-10-17T03:38:41;14.20;99.90
2721;DHT22;1368;49.484;11.112;2022-10-17T03:41:07;14.30;99.90
2721;DHT22;1368;49.484;11.112;2022-10-17T03:43:33;13.90;99.90
2721;DHT22;1368;49.484;11.112;2022-10-17T03:45:59;13.80;99.90
2721;DHT22;1368;49.484;11.112;2022-10-17T03:48:26;13.80;99.90
2721;DHT22;1368;49.484;11.112;2022-10-17T03:50:52;13.70;99.90
2721;DHT22;1368;49.484;11.112;2022-10-17T03:53:22;13.50;99.90
2721;DHT22;1368;49.484;11.112;2022-10-17T03:55:47;13.30;99.90
2721;DHT22;1368;49.484;11.112;2022-10-17T03:58:13;13.40;99.90
2721;DHT22;1368;49.484;11.112;2022-10-17T04:00:38;14.10;99.90
2721;DHT22;1368;49.484;11.112;2022-10-17T04:03:04;13.60;99.90
2721;DHT22;1368;49.484;11.112;2022-10-17T04:05:29;13.60;99.90
2721;DHT22;1368;49.484;11.112;2022-10-17T04:07:55;13.60;99.90
2721;DHT22;1368;49.484;11.112;2022-10-17T04:10:21;13.60;99.90
2721;DHT22;1368;49.484;11.112;2022-10-17T04:12:46;13.50;99.90
2721;DHT22;1368;49.484;11.112;2022-10-17T04:15:12;13.50;99.90
2721;DHT22;1368;49.484;11.112;2022-10-17T04:17:37;13.40;99.90
2721;DHT22;1368;49.484;11.112;2022-10-17T04:20:03;13.50;99.90
2721;DHT22;1368;49.484;11.112;2022-10-17T04:22:29;13.50;99.90
2721;DHT22;1368;49.484;11.112;2022-10-17T04:24:55;13.60;99.90
2721;DHT22;1368;49.484;11.112;2022-10-17T04:27:20;13.70;99.90
2721;DHT22;1368;49.484;11.112;2022-10-17T04:29:46;13.70;99.90
2721;DHT22;1368;49.484;11.112;2022-10-17T04:32:11;13.60;99.90
2721;DHT22;1368;49.484;11.112;2022-10-17T04:34:37;14.00;99.90
2721;DHT22;1368;49.484;11.112;2022-10-17T04:37:02;13.50;99.90
2721;DHT22;1368;49.484;11.112;2022-10-17T04:39:28;13.70;99.90
2721;DHT22;1368;49.484;11.112;2022-10-17T04:41:54;13.90;99.90
2721;DHT22;1368;49.484;11.112;2022-10-17T04:44:21;13.90;99.90
2721;DHT22;1368;49.484;11.112;2022-10-17T04:46:46;13.90;99.90
2721;DHT22;1368;49.484;11.112;2022-10-17T04:49:12;13.70;99.90
2721;DHT22;1368;49.484;11.112;2022-10-17T04:51:37;13.70;99.90
2721;DHT22;1368;49.484;11.112;2022-10-17T04:54:03;13.60;99.90
2721;DHT22;1368;49.484;11.112;2022-10-17T04:56:29;13.60;99.90
2721;DHT22;1368;49.484;11.112;2022-10-17T04:58:55;13.70;99.90
2721;DHT22;1368;49.484;11.112;2022-10-17T05:01:22;13.80;99.90
2721;DHT22;1368;49.484;11.112;2022-10-17T05:03:48;13.80;99.90
2721;DHT22;1368;49.484;11.112;2022-10-17T05:06:17;13.60;99.90
2721;DHT22;1368;49.484;11.112;2022-10-17T05:08:43;13.80;99.90
2721;DHT22;1368;49.484;11.112;2022-10-17T05:11:22;13.50;99.90
2721;DHT22;1368;49.484;11.112;2022-10-17T05:13:55;13.30;99.90
2721;DHT22;1368;49.484;11.112;2022-10-17T05:16:22;13.40;99.90
2721;DHT22;1368;49.484;11.112;2022-10-17T05:18:49;13.40;99.90
2721;DHT22;1368;49.484;11.112;2022-10-17T05:21:15;13.40;99.90
2721;DHT22;1368;49.484;11.112;2022-10-17T05:23:41;13.40;99.90
2721;DHT22;1368;49.484;11.112;2022-10-17T05:26:06;13.40;99.90
2721;DHT22;1368;49.484;11.112;2022-10-17T05:28:33;13.50;99.90
2721;DHT22;1368;49.484;11.112;2022-10-17T05:31:02;13.50;99.90
2721;DHT22;1368;49.484;11.112;2022-10-17T05:33:28;13.50;99.90
2721;DHT22;1368;49.484;11.112;2022-10-17T05:35:53;13.40;99.90
2721;DHT22;1368;49.484;11.112;2022-10-17T05:38:19;13.60;99.90
2721;DHT22;1368;49.484;11.112;2022-10-17T05:40:44;14.00;99.90
2721;DHT22;1368;49.484;11.112;2022-10-17T05:43:10;13.70;99.90
2721;DHT22;1368;49.484;11.112;2022-10-17T05:45:36;13.80;99.90
2721;DHT22;1368;49.484;11.112;2022-10-17T05:48:01;13.90;99.90
2721;DHT22;1368;49.484;11.112;2022-10-17T05:50:27;14.00;99.90
2721;DHT22;1368;49.484;11.112;2022-10-17T05:52:54;13.80;99.90
2721;DHT22;1368;49.484;11.112;2022-10-17T05:55:19;13.70;99.90
2721;DHT22;1368;49.484;11.112;2022-10-17T05:57:45;13.70;99.90
2721;DHT22;1368;49.484;11.112;2022-10-17T06:00:11;13.70;99.90
2721;DHT22;1368;49.484;11.112;2022-10-17T06:02:37;13.70;99.90
2721;DHT22;1368;49.484;11.112;2022-10-17T06:05:03;13.70;99.90
2721;DHT22;1368;49.484;11.112;2022-10-17T06:07:28;13.70;99.90
2721;DHT22;1368;49.484;11.112;2022-10-17T06:09:54;13.50;99.90
2721;DHT22;1368;49.484;11.112;2022-10-17T06:12:19;13.40;99.90
2721;DHT22;1368;49.484;11.112;2022-10-17T06:14:45;13.40;99.90
2721;DHT22;1368;49.484;11.112;2022-10-17T06:17:11;13.20;99.90
2721;DHT22;1368;49.484;11.112;2022-10-17T06:19:36;13.10;99.90
2721;DHT22;1368;49.484;11.112;2022-10-17T06:22:02;13.70;99.90
2721;DHT22;1368;49.484;11.112;2022-10-17T06:24:28;13.50;99.90
2721;DHT22;1368;49.484;11.112;2022-10-17T06:26:53;13.60;99.90
2721;DHT22;1368;49.484;11.112;2022-10-17T06:29:19;14.30;99.90
2721;DHT22;1368;49.484;11.112;2022-10-17T06:31:44;14.50;99.90
2721;DHT22;1368;49.484;11.112;2022-10-17T06:34:10;15.10;99.90
2721;DHT22;1368;49.484;11.112;2022-10-17T06:36:35;15.90;99.90
2721;DHT22;1368;49.484;11.112;2022-10-17T06:39:01;15.90;99.90
2721;DHT22;1368;49.484;11.112;2022-10-17T06:41:26;16.60;99.90
2721;DHT22;1368;49.484;11.112;2022-10-17T06:43:52;17.10;99.90
2721;DHT22;1368;49.484;11.112;2022-10-17T06:46:18;16.90;99.90
2721;DHT22;1368;49.484;11.112;2022-10-17T06:48:44;17.00;99.90
2721;DHT22;1368;49.484;11.112;2022-10-17T06:51:10;17.70;99.90
2721;DHT22;1368;49.484;11.112;2022-10-17T06:53:37;17.10;99.90
2721;DHT22;1368;49.484;11.112;2022-10-17T06:56:04;17.70;99.90
2721;DHT22;1368;49.484;11.112;2022-10-17T06:58:36;17.80;99.90
2721;DHT22;1368;49.484;11.112;2022-10-17T07:01:08;17.80;99.90
2721;DHT22;1368;49.484;11.112;2022-10-17T07:03:34;18.30;99.90
2721;DHT22;1368;49.484;11.112;2022-10-17T07:06:00;18.60;99.90
2721;DHT22;1368;49.484;11.112;2022-10-17T07:08:26;19.00;99.90
2721;DHT22;1368;49.484;11.112;2022-10-17T07:10:52;19.40;99.90
2721;DHT22;1368;49.484;11.112;2022-10-17T07:13:18;19.60;99.90
2721;DHT22;1368;49.484;11.112;2022-10-17T07:15:44;19.60;99.90
2721;DHT22;1368;49.484;11.112;2022-10-17T07:18:10;19.80;99.90
2721;DHT22;1368;49.484;11.112;2022-10-17T07:20:36;19.80;99.90
2721;DHT22;1368;49.484;11.112;2022-10-17T07:23:02;20.00;99.90
2721;DHT22;1368;49.484;11.112;2022-10-17T07:25:28;19.80;99.90
2721;DHT22;1368;49.484;11.112;2022-10-17T07:27:54;19.90;99.90
2721;DHT22;1368;49.484;11.112;2022-10-17T07:30:20;19.90;99.90
2721;DHT22;1368;49.484;11.112;2022-10-17T07:32:46;20.10;99.90
2721;DHT22;1368;49.484;11.112;2022-10-17T07:35:13;20.30;99.90
2721;DHT22;1368;49.484;11.112;2022-10-17T07:37:38;20.10;99.90
2721;DHT22;1368;49.484;11.112;2022-10-17T07:40:05;19.90;99.90
2721;DHT22;1368;49.484;11.112;2022-10-17T07:42:32;20.10;99.90
2721;DHT22;1368;49.484;11.112;2022-10-17T07:44:58;20.90;99.90
2721;DHT22;1368;49.484;11.112;2022-10-17T07:47:24;21.00;99.90
2721;DHT22;1368;49.484;11.112;2022-10-17T07:49:49;21.20;99.90
2721;DHT22;1368;49.484;11.112;2022-10-17T07:52:16;21.30;99.90
2721;DHT22;1368;49.484;11.112;2022-10-17T07:54:42;21.50;99.90
2721;DHT22;1368;49.484;11.112;2022-10-17T07:57:07;22.00;99.90
2721;DHT22;1368;49.484;11.112;2022-10-17T07:59:34;21.90;99.90
2721;DHT22;1368;49.484;11.112;2022-10-17T08:02:00;21.90;99.90
2721;DHT22;1368;49.484;11.112;2022-10-17T08:04:26;22.00;99.90
2721;DHT22;1368;49.484;11.112;2022-10-17T08:06:52;22.60;99.90
2721;DHT22;1368;49.484;11.112;2022-10-17T08:09:18;22.40;99.90
2721;DHT22;1368;49.484;11.112;2022-10-17T08:11:44;22.90;99.90
2721;DHT22;1368;49.484;11.112;2022-10-17T08:14:13;22.70;99.90
2721;DHT22;1368;49.484;11.112;2022-10-17T08:16:41;23.00;99.90
2721;DHT22;1368;49.484;11.112;2022-10-17T08:19:07;23.30;99.90
2721;DHT22;1368;49.484;11.112;2022-10-17T08:21:36;23.40;99.90
2721;DHT22;1368;49.484;11.112;2022-10-17T08:24:03;23.30;99.90
2721;DHT22;1368;49.484;11.112;2022-10-17T08:26:28;23.60;99.90
2721;DHT22;1368;49.484;11.112;2022-10-17T08:28:55;23.50;99.90
2721;DHT22;1368;49.484;11.112;2022-10-17T08:31:20;23.30;99.90
2721;DHT22;1368;49.484;11.112;2022-10-17T08:33:47;23.50;99.90
2721;DHT22;1368;49.484;11.112;2022-10-17T08:36:15;24.00;99.90
2721;DHT22;1368;49.484;11.112;2022-10-17T08:38:41;24.40;99.90
2721;DHT22;1368;49.484;11.112;2022-10-17T08:41:32;24.60;99.90
2721;DHT22;1368;49.484;11.112;2022-10-17T08:46:37;24.60;99.90
2721;DHT22;1368;49.484;11.112;2022-10-17T08:49:08;24.60;99.90
2721;DHT22;1368;49.484;11.112;2022-10-17T08:55:51;25.20;99.90
2721;DHT22;1368;49.484;11.112;2022-10-17T08:58:22;25.30;99.90
2721;DHT22;1368;49.484;11.112;2022-10-17T09:01:07;25.40;99.90
2721;DHT22;1368;49.484;11.112;2022-10-17T09:06:23;25.10;99.90
2721;DHT22;1368;49.484;11.112;2022-10-17T09:09:13;24.50;99.90
2721;DHT22;1368;49.484;11.112;2022-10-17T09:20:18;24.50;99.90
2721;DHT22;1368;49.484;11.112;2022-10-17T09:22:58;24.70;99.90
2721;DHT22;1368;49.484;11.112;2022-10-17T09:25:25;24.90;99.90
2721;DHT22;1368;49.484;11.112;2022-10-17T09:28:13;25.20;99.90
2721;DHT22;1368;49.484;11.112;2022-10-17T09:30:46;25.60;99.90
2721;DHT22;1368;49.484;11.112;2022-10-17T09:33:20;26.60;99.90
2721;DHT22;1368;49.484;11.112;2022-10-17T09:35:49;25.90;99.90
2721;DHT22;1368;49.484;11.112;2022-10-17T09:38:21;25.40;99.90
2721;DHT22;1368;49.484;11.112;2022-10-17T09:40:56;25.30;99.90
2721;DHT22;1368;49.484;11.112;2022-10-17T09:43:22;25.30;99.90
2721;DHT22;1368;49.484;11.112;2022-10-17T09:46:14;25.30;99.90
2721;DHT22;1368;49.484;11.112;2022-10-17T09:51:30;25.70;99.90
2721;DHT22;1368;49.484;11.112;2022-10-17T09:54:00;25.60;99.90
2721;DHT22;1368;49.484;11.112;2022-10-17T09:56:27;25.70;99.90
2721;DHT22;1368;49.484;11.112;2022-10-17T09:58:56;25.90;99.90
2721;DHT22;1368;49.484;11.112;2022-10-17T10:04:09;26.20;99.90
2721;DHT22;1368;49.484;11.112;2022-10-17T10:06:36;26.30;99.90
2721;DHT22;1368;49.484;11.112;2022-10-17T10:09:03;26.20;99.90
2721;DHT22;1368;49.484;11.112;2022-10-17T10:11:50;26.20;99.90
2721;DHT22;1368;49.484;11.112;2022-10-17T10:14:28;26.00;99.90
2721;DHT22;1368;49.484;11.112;2022-10-17T10:16:54;25.80;99.90
2721;DHT22;1368;49.484;11.112;2022-10-17T10:22:02;25.50;99.90
2721;DHT22;1368;49.484;11.112;2022-10-17T10:24:28;25.40;99.90
2721;DHT22;1368;49.484;11.112;2022-10-17T10:26:57;25.50;99.90
2721;DHT22;1368;49.484;11.112;2022-10-17T10:29:47;25.00;99.90
2721;DHT22;1368;49.484;11.112;2022-10-17T10:32:33;25.20;99.90
2721;DHT22;1368;49.484;11.112;2022-10-17T10:35:18;25.00;99.90
2721;DHT22;1368;49.484;11.112;2022-10-17T10:37:47;25.20;99.90
2721;DHT22;1368;49.484;11.112;2022-10-17T10:40:21;25.30;99.90
2721;DHT22;1368;49.484;11.112;2022-10-17T10:42:50;25.10;99.90
2721;DHT22;1368;49.484;11.112;2022-10-17T10:45:24;25.80;99.90
2721;DHT22;1368;49.484;11.112;2022-10-17T10:47:54;25.40;99.90
2721;DHT22;1368;49.484;11.112;2022-10-17T10:53:08;25.40;99.90
2721;DHT22;1368;49.484;11.112;2022-10-17T10:55:49;25.10;99.90
2721;DHT22;1368;49.484;11.112;2022-10-17T11:01:08;24.80;99.90
2721;DHT22;1368;49.484;11.112;2022-10-17T11:04:41;24.80;99.90
2721;DHT22;1368;49.484;11.112;2022-10-17T11:06:36;24.90;99.90
2721;DHT22;1368;49.484;11.112;2022-10-17T11:09:27;24.80;99.90
2721;DHT22;1368;49.484;11.112;2022-10-17T11:12:08;24.90;99.90
2721;DHT22;1368;49.484;11.112;2022-10-17T11:14:41;24.90;99.90
2721;DHT22;1368;49.484;11.112;2022-10-17T11:17:38;25.00;99.90
2721;DHT22;1368;49.484;11.112;2022-10-17T11:25:46;25.10;99.90
2721;DHT22;1368;49.484;11.112;2022-10-17T11:28:18;25.30;99.90
2721;DHT22;1368;49.484;11.112;2022-10-17T11:30:57;25.90;99.90
2721;DHT22;1368;49.484;11.112;2022-10-17T11:36:26;24.90;99.90
2721;DHT22;1368;49.484;11.112;2022-10-17T11:39:00;24.90;99.90
2721;DHT22;1368;49.484;11.112;2022-10-17T11:44:07;25.10;99.90
2721;DHT22;1368;49.484;11.112;2022-10-17T11:46:36;25.10;99.90
2721;DHT22;1368;49.484;11.112;2022-10-17T11:49:16;25.20;99.90
2721;DHT22;1368;49.484;11.112;2022-10-17T11:51:59;25.30;99.90
2721;DHT22;1368;49.484;11.112;2022-10-17T11:54:40;25.20;99.90
2721;DHT22;1368;49.484;11.112;2022-10-17T12:00:23;25.40;99.90
2721;DHT22;1368;49.484;11.112;2022-10-17T12:03:09;25.70;99.90
2721;DHT22;1368;49.484;11.112;2022-10-17T12:08:35;25.60;99.90
2721;DHT22;1368;49.484;11.112;2022-10-17T12:18:46;26.20;99.90
2721;DHT22;1368;49.484;11.112;2022-10-17T12:21:12;26.30;99.90
2721;DHT22;1368;49.484;11.112;2022-10-17T12:23:37;26.50;99.90
2721;DHT22;1368;49.484;11.112;2022-10-17T12:26:07;26.20;99.90
2721;DHT22;1368;49.484;11.112;2022-10-17T12:31:10;25.80;99.90
2721;DHT22;1368;49.484;11.112;2022-10-17T12:34:03;26.00;99.90
2721;DHT22;1368;49.484;11.112;2022-10-17T12:49:42;26.40;99.90
2721;DHT22;1368;49.484;11.112;2022-10-17T13:05:53;25.80;99.90
2721;DHT22;1368;49.484;11.112;2022-10-17T13:08:26;25.40;99.90
2721;DHT22;1368;49.484;11.112;2022-10-17T13:10:53;25.40;99.90
2721;DHT22;1368;49.484;11.112;2022-10-17T13:13:35;25.40;99.90
2721;DHT22;1368;49.484;11.112;2022-10-17T13:16:01;25.30;99.90
2721;DHT22;1368;49.484;11.112;2022-10-17T13:18:28;25.10;99.90
2721;DHT22;1368;49.484;11.112;2022-10-17T13:20:56;24.90;99.90
2721;DHT22;1368;49.484;11.112;2022-10-17T13:23:23;24.80;99.90
2721;DHT22;1368;49.484;11.112;2022-10-17T13:26:15;25.30;99.90
2721;DHT22;1368;49.484;11.112;2022-10-17T13:28:44;25.20;99.90
2721;DHT22;1368;49.484;11.112;2022-10-17T13:31:30;25.10;99.90
2721;DHT22;1368;49.484;11.112;2022-10-17T13:34:00;24.90;99.90
2721;DHT22;1368;49.484;11.112;2022-10-17T13:36:28;24.80;99.90
2721;DHT22;1368;49.484;11.112;2022-10-17T13:38:54;25.00;99.90
2721;DHT22;1368;49.484;11.112;2022-10-17T13:41:27;25.00;99.90
2721;DHT22;1368;49.484;11.112;2022-10-17T13:43:55;25.10;99.90
2721;DHT22;1368;49.484;11.112;2022-10-17T13:46:28;25.10;99.90
2721;DHT22;1368;49.484;11.112;2022-10-17T13:48:56;25.20;99.90
2721;DHT22;1368;49.484;11.112;2022-10-17T13:51:24;25.10;99.90
2721;DHT22;1368;49.484;11.112;2022-10-17T13:53:50;24.90;99.90
2721;DHT22;1368;49.484;11.112;2022-10-17T13:56:24;24.60;99.90
2721;DHT22;1368;49.484;11.112;2022-10-17T13:58:55;24.70;99.90
2721;DHT22;1368;49.484;11.112;2022-10-17T14:01:24;24.40;99.90
2721;DHT22;1368;49.484;11.112;2022-10-17T14:03:50;24.40;99.90
2721;DHT22;1368;49.484;11.112;2022-10-17T14:06:26;24.60;99.90
2721;DHT22;1368;49.484;11.112;2022-10-17T14:09:07;24.70;99.90
2721;DHT22;1368;49.484;11.112;2022-10-17T14:11:43;25.00;99.90
2721;DHT22;1368;49.484;11.112;2022-10-17T14:14:18;25.30;99.90
2721;DHT22;1368;49.484;11.112;2022-10-17T14:16:44;25.50;99.90
2721;DHT22;1368;49.484;11.112;2022-10-17T14:19:28;25.50;99.90
2721;DHT22;1368;49.484;11.112;2022-10-17T14:22:35;25.50;99.90
2721;DHT22;1368;49.484;11.112;2022-10-17T14:24:58;25.60;99.90
2721;DHT22;1368;49.484;11.112;2022-10-17T14:29:54;25.80;99.90
2721;DHT22;1368;49.484;11.112;2022-10-17T14:32:22;25.90;99.90
2721;DHT22;1368;49.484;11.112;2022-10-17T14:34:53;25.60;99.90
2721;DHT22;1368;49.484;11.112;2022-10-17T14:39:54;25.40;99.90
2721;DHT22;1368;49.484;11.112;2022-10-17T14:42:23;25.80;99.90
2721;DHT22;1368;49.484;11.112;2022-10-17T14:44:50;25.40;99.90
2721;DHT22;1368;49.484;11.112;2022-10-17T14:47:21;25.50;99.90
2721;DHT22;1368;49.484;11.112;2022-10-17T14:49:50;25.60;99.90
2721;DHT22;1368;49.484;11.112;2022-10-17T14:54:50;25.60;99.90
2721;DHT22;1368;49.484;11.112;2022-10-17T14:59:54;25.30;99.90
2721;DHT22;1368;49.484;11.112;2022-10-17T15:02:20;25.30;99.90
2721;DHT22;1368;49.484;11.112;2022-10-17T15:04:46;25.40;99.90
2721;DHT22;1368;49.484;11.112;2022-10-17T15:07:15;25.40;99.90
2721;DHT22;1368;49.484;11.112;2022-10-17T15:09:42;25.20;99.90
2721;DHT22;1368;49.484;11.112;2022-10-17T15:12:22;25.10;99.90
2721;DHT22;1368;49.484;11.112;2022-10-17T15:14:49;25.10;99.90
2721;DHT22;1368;49.484;11.112;2022-10-17T15:17:25;25.20;99.90
2721;DHT22;1368;49.484;11.112;2022-10-17T15:19:51;25.30;99.90
2721;DHT22;1368;49.484;11.112;2022-10-17T15:22:17;25.30;99.90
2721;DHT22;1368;49.484;11.112;2022-10-17T15:24:43;25.40;99.90
2721;DHT22;1368;49.484;11.112;2022-10-17T15:27:17;25.40;99.90
2721;DHT22;1368;49.484;11.112;2022-10-17T15:29:44;25.30;99.90
2721;DHT22;1368;49.484;11.112;2022-10-17T15:32:10;25.20;99.90
2721;DHT22;1368;49.484;11.112;2022-10-17T15:34:36;25.10;99.90
2721;DHT22;1368;49.484;11.112;2022-10-17T15:37:03;25.10;99.90
2721;DHT22;1368;49.484;11.112;2022-10-17T15:39:29;25.10;99.90
2721;DHT22;1368;49.484;11.112;2022-10-17T15:41:54;25.10;99.90
2721;DHT22;1368;49.484;11.112;2022-10-17T15:44:20;25.10;99.90
2721;DHT22;1368;49.484;11.112;2022-10-17T15:46:46;25.00;99.90
2721;DHT22;1368;49.484;11.112;2022-10-17T15:49:13;24.80;99.90
2721;DHT22;1368;49.484;11.112;2022-10-17T15:51:41;24.80;99.90
2721;DHT22;1368;49.484;11.112;2022-10-17T15:54:07;24.70;99.90
2721;DHT22;1368;49.484;11.112;2022-10-17T15:56:39;24.70;99.90
2721;DHT22;1368;49.484;11.112;2022-10-17T15:59:20;24.50;99.90
2721;DHT22;1368;49.484;11.112;2022-10-17T16:01:47;24.40;99.90
2721;DHT22;1368;49.484;11.112;2022-10-17T16:04:13;24.30;99.90
2721;DHT22;1368;49.484;11.112;2022-10-17T16:06:41;24.30;99.90
2721;DHT22;1368;49.484;11.112;2022-10-17T16:09:07;24.70;99.90
2721;DHT22;1368;49.484;11.112;2022-10-17T16:14:02;24.00;99.90
2721;DHT22;1368;49.484;11.112;2022-10-17T16:16:28;23.90;99.90
2721;DHT22;1368;49.484;11.112;2022-10-17T16:18:54;23.80;99.90
2721;DHT22;1368;49.484;11.112;2022-10-17T16:21:23;23.60;99.90
2721;DHT22;1368;49.484;11.112;2022-10-17T16:23:49;23.40;99.90
2721;DHT22;1368;49.484;11.112;2022-10-17T16:26:15;23.40;99.90
2721;DHT22;1368;49.484;11.112;2022-10-17T16:28:42;23.30;99.90
2721;DHT22;1368;49.484;11.112;2022-10-17T16:31:25;23.30;99.90
2721;DHT22;1368;49.484;11.112;2022-10-17T16:33:52;23.10;99.90
2721;DHT22;1368;49.484;11.112;2022-10-17T16:36:18;23.00;99.90
2721;DHT22;1368;49.484;11.112;2022-10-17T16:38:45;22.90;99.90
2721;DHT22;1368;49.484;11.112;2022-10-17T16:43:47;22.80;99.90
2721;DHT22;1368;49.484;11.112;2022-10-17T16:46:13;22.70;99.90
2721;DHT22;1368;49.484;11.112;2022-10-17T16:48:39;22.50;99.90
2721;DHT22;1368;49.484;11.112;2022-10-17T16:51:05;22.50;99.90
2721;DHT22;1368;49.484;11.112;2022-10-17T16:53:30;22.50;99.90
2721;DHT22;1368;49.484;11.112;2022-10-17T16:56:03;22.30;99.90
2721;DHT22;1368;49.484;11.112;2022-10-17T16:58:29;22.20;99.90
2721;DHT22;1368;49.484;11.112;2022-10-17T17:01:01;22.30;99.90
2721;DHT22;1368;49.484;11.112;2022-10-17T17:03:27;22.00;99.90
2721;DHT22;1368;49.484;11.112;2022-10-17T17:05:52;22.00;99.90
2721;DHT22;1368;49.484;11.112;2022-10-17T17:08:18;21.90;99.90
2721;DHT22;1368;49.484;11.112;2022-10-17T17:10:47;21.80;99.90
2721;DHT22;1368;49.484;11.112;2022-10-17T17:13:18;21.60;99.90
2721;DHT22;1368;49.484;11.112;2022-10-17T17:15:44;21.50;99.90
2721;DHT22;1368;49.484;11.112;2022-10-17T17:18:10;21.40;99.90
2721;DHT22;1368;49.484;11.112;2022-10-17T17:20:37;21.30;99.90
2721;DHT22;1368;49.484;11.112;2022-10-17T17:23:02;21.20;99.90
2721;DHT22;1368;49.484;11.112;2022-10-17T17:25:28;21.60;99.90
2721;DHT22;1368;49.484;11.112;2022-10-17T17:27:53;21.00;99.90
2721;DHT22;1368;49.484;11.112;2022-10-17T17:30:19;20.90;99.90
2721;DHT22;1368;49.484;11.112;2022-10-17T17:32:45;21.10;99.90
2721;DHT22;1368;49.484;11.112;2022-10-17T17:35:10;20.00;99.90
2721;DHT22;1368;49.484;11.112;2022-10-17T17:37:36;19.80;99.90
2721;DHT22;1368;49.484;11.112;2022-10-17T17:40:02;20.00;99.90
2721;DHT22;1368;49.484;11.112;2022-10-17T17:42:27;19.90;99.90
2721;DHT22;1368;49.484;11.112;2022-10-17T17:44:53;19.80;99.90
2721;DHT22;1368;49.484;11.112;2022-10-17T17:47:18;19.50;99.90
2721;DHT22;1368;49.484;11.112;2022-10-17T17:49:44;19.70;99.90
2721;DHT22;1368;49.484;11.112;2022-10-17T17:52:10;19.70;99.90
2721;DHT22;1368;49.484;11.112;2022-10-17T17:54:35;19.90;99.90
2721;DHT22;1368;49.484;11.112;2022-10-17T17:57:01;19.90;99.90
2721;DHT22;1368;49.484;11.112;2022-10-17T17:59:26;20.00;99.90
2721;DHT22;1368;49.484;11.112;2022-10-17T18:01:52;20.20;99.90
2721;DHT22;1368;49.484;11.112;2022-10-17T18:04:18;19.80;99.90
2721;DHT22;1368;49.484;11.112;2022-10-17T18:06:43;19.80;99.90